Time;durP1;ratioP1;P1;durP2;ratioP2;P2;SDS_P1;SDS_P2;PMS_P1;PMS_P2;Temp;Humidity;BMP_temperature;BMP_pressure;BME280_temperature;BME280_humidity;BME280_pressure;Samples;Min_cycle;Max_cycle;Signal;HPM_P1;HPM_P2
2024/01/07 00:00:30;;;;;;;18.65;16.60;;;;;;;;;;5014378;28;20052;-61
2024/01/07 00:02:56;;;;;;;19.92;16.55;;;;;;;;;;5014337;28;20014;-61
2024/01/07 00:05:22;;;;;;;17.38;15.68;;;;;;;;;;5014571;28;20124;-61
2024/01/07 00:07:49;;;;;;;17.73;15.93;;;;;;;;;;5014395;28;20124;-61
2024/01/07 00:10:15;;;;;;;16.83;15.02;;;;;;;;;;5014378;28;20022;-61
2024/01/07 00:12:41;;;;;;;18.30;16.48;;;;;;;;;;5014162;28;20172;-61
2024/01/07 00:15:07;;;;;;;18.35;15.95;;;;;;;;;;5014233;28;20029;-61
2024/01/07 00:17:33;;;;;;;16.48;14.85;;;;;;;;;;5014078;28;20029;-61
2024/01/07 00:19:59;;;;;;;19.20;16.23;;;;;;;;;;5014005;28;20030;-61
2024/01/07 00:22:25;;;;;;;18.77;16.73;;;;;;;;;;5014095;28;20030;-61
2024/01/07 00:24:51;;;;;;;18.10;16.20;;;;;;;;;;5013910;28;20056;-61
2024/01/07 00:27:17;;;;;;;18.33;16.27;;;;;;;;;;5012535;28;20046;-62
2024/01/07 00:29:43;;;;;;;19.90;17.23;;;;;;;;;;5013853;28;20030;-61
2024/01/07 00:32:09;;;;;;;21.92;19.00;;;;;;;;;;5014122;28;20551;-61
2024/01/07 00:34:35;;;;;;;19.25;17.25;;;;;;;;;;5013823;28;20107;-61
2024/01/07 00:37:01;;;;;;;18.67;16.75;;;;;;;;;;5013351;28;20030;-61
2024/01/07 00:39:27;;;;;;;19.83;17.73;;;;;;;;;;5013600;28;20526;-61
2024/01/07 00:41:53;;;;;;;17.80;15.27;;;;;;;;;;5013715;28;20029;-61
2024/01/07 00:44:19;;;;;;;20.48;16.98;;;;;;;;;;5013778;28;20041;-61
2024/01/07 00:46:45;;;;;;;19.67;17.58;;;;;;;;;;5013412;28;20121;-61
2024/01/07 00:49:11;;;;;;;18.65;16.65;;;;;;;;;;5013411;28;20022;-61
2024/01/07 00:51:37;;;;;;;20.75;16.60;;;;;;;;;;5013558;28;20030;-61
2024/01/07 00:54:03;;;;;;;18.63;16.65;;;;;;;;;;5013271;28;20026;-61
2024/01/07 00:56:29;;;;;;;19.63;16.85;;;;;;;;;;5013388;28;20022;-61
2024/01/07 00:58:55;;;;;;;18.98;16.98;;;;;;;;;;5012154;28;20034;-61
2024/01/07 01:01:21;;;;;;;19.73;17.40;;;;;;;;;;5013372;28;20444;-61
2024/01/07 01:03:47;;;;;;;18.38;16.25;;;;;;;;;;5013285;28;20030;-61
2024/01/07 01:06:13;;;;;;;19.48;17.38;;;;;;;;;;5013436;28;20028;-61
2024/01/07 01:08:40;;;;;;;20.50;18.30;;;;;;;;;;5013157;28;20388;-61
2024/01/07 01:11:05;;;;;;;19.77;16.50;;;;;;;;;;5009099;28;20033;-61
2024/01/07 01:13:31;;;;;;;21.83;18.05;;;;;;;;;;5003759;28;20029;-61
2024/01/07 01:15:57;;;;;;;19.25;16.92;;;;;;;;;;5012778;28;20065;-61
2024/01/07 01:18:24;;;;;;;21.33;18.40;;;;;;;;;;5013048;28;20075;-61
2024/01/07 01:20:49;;;;;;;21.33;18.42;;;;;;;;;;5012802;28;20033;-62
2024/01/07 01:23:15;;;;;;;20.10;17.85;;;;;;;;;;5012873;28;20022;-61
2024/01/07 01:25:41;;;;;;;21.80;17.50;;;;;;;;;;5012967;28;20127;-61
2024/01/07 01:28:07;;;;;;;20.80;18.23;;;;;;;;;;5012735;28;20033;-61
2024/01/07 01:30:33;;;;;;;21.30;18.67;;;;;;;;;;5012795;28;20017;-61
2024/01/07 01:32:59;;;;;;;22.60;18.77;;;;;;;;;;5012717;28;20472;-61
2024/01/07 01:35:25;;;;;;;19.45;17.35;;;;;;;;;;5012590;28;20486;-61
2024/01/07 01:37:54;;;;;;;19.88;17.27;;;;;;;;;;5011300;28;20045;-61
2024/01/07 01:40:20;;;;;;;19.08;16.92;;;;;;;;;;5012414;28;20038;-61
2024/01/07 01:42:48;;;;;;;20.25;17.98;;;;;;;;;;5012838;28;20025;-61
2024/01/07 01:45:14;;;;;;;19.95;17.65;;;;;;;;;;5012456;28;20029;-61
2024/01/07 01:47:41;;;;;;;20.17;16.65;;;;;;;;;;5012512;28;20100;-61
2024/01/07 01:50:07;;;;;;;20.77;18.42;;;;;;;;;;5011917;28;20106;-61
2024/01/07 01:52:34;;;;;;;18.65;16.67;;;;;;;;;;5012223;28;20029;-61
2024/01/07 01:55:00;;;;;;;19.65;17.58;;;;;;;;;;5011056;28;20061;-61
2024/01/07 01:57:30;;;;;;;19.20;17.23;;;;;;;;;;5012391;28;20508;-61
2024/01/07 02:00:01;;;;;;;20.15;17.88;;;;;;;;;;5017173;28;20017;-61
2024/01/07 02:02:28;;;;;;;20.73;18.23;;;;;;;;;;5021323;28;20227;-61
2024/01/07 02:04:54;;;;;;;21.42;19.13;;;;;;;;;;5011984;28;20029;-61
2024/01/07 02:07:20;;;;;;;19.02;17.10;;;;;;;;;;5012406;28;20121;-61
2024/01/07 02:09:46;;;;;;;19.83;17.73;;;;;;;;;;5025990;28;20435;-61
2024/01/07 02:12:12;;;;;;;20.17;17.23;;;;;;;;;;5011678;28;20037;-61
2024/01/07 02:14:39;;;;;;;18.73;16.75;;;;;;;;;;5012177;28;20484;-61
2024/01/07 02:17:05;;;;;;;19.27;17.25;;;;;;;;;;5011871;28;20029;-61
2024/01/07 02:19:31;;;;;;;20.48;17.77;;;;;;;;;;5011020;28;20089;-61
2024/01/07 02:21:57;;;;;;;19.92;17.08;;;;;;;;;;5012175;28;20432;-61
2024/01/07 02:24:23;;;;;;;19.20;16.45;;;;;;;;;;5010487;28;20069;-61
2024/01/07 02:26:49;;;;;;;20.10;16.83;;;;;;;;;;5025611;28;20065;-61
2024/01/07 02:29:15;;;;;;;19.00;17.08;;;;;;;;;;5011818;28;20505;-61
2024/01/07 02:31:41;;;;;;;18.35;16.52;;;;;;;;;;5012005;28;20034;-61
2024/01/07 02:34:09;;;;;;;18.90;16.92;;;;;;;;;;5001118;28;20025;-61
2024/01/07 02:36:35;;;;;;;17.95;16.05;;;;;;;;;;5011786;28;20504;-61
2024/01/07 02:39:01;;;;;;;18.98;17.17;;;;;;;;;;5011700;28;20037;-60
2024/01/07 02:41:27;;;;;;;18.10;16.30;;;;;;;;;;5011848;28;20405;-61
2024/01/07 02:43:53;;;;;;;20.83;17.77;;;;;;;;;;5011761;28;20100;-61
2024/01/07 02:46:20;;;;;;;21.45;17.80;;;;;;;;;;5011555;28;20033;-61
2024/01/07 02:48:46;;;;;;;18.98;16.98;;;;;;;;;;5011726;28;20026;-61
2024/01/07 02:51:12;;;;;;;19.00;16.88;;;;;;;;;;5011824;28;20345;-61
2024/01/07 02:53:38;;;;;;;18.85;16.70;;;;;;;;;;5011731;28;20054;-61
2024/01/07 02:56:04;;;;;;;19.42;17.48;;;;;;;;;;5011797;28;20021;-61
2024/01/07 02:58:30;;;;;;;20.15;17.95;;;;;;;;;;5011135;28;20022;-61
2024/01/07 03:00:56;;;;;;;18.67;16.13;;;;;;;;;;5027897;28;20390;-61
2024/01/07 03:03:22;;;;;;;21.25;17.02;;;;;;;;;;5014216;28;20025;-61
2024/01/07 03:05:49;;;;;;;18.40;16.52;;;;;;;;;;5015641;28;20391;-61
2024/01/07 03:08:15;;;;;;;18.48;16.58;;;;;;;;;;5014026;28;20029;-61
2024/01/07 03:10:40;;;;;;;18.45;16.52;;;;;;;;;;5015429;28;20100;-61
2024/01/07 03:13:06;;;;;;;18.38;16.45;;;;;;;;;;5013796;28;20025;-61
2024/01/07 03:15:32;;;;;;;17.65;15.82;;;;;;;;;;5015389;28;20014;-61
2024/01/07 03:17:58;;;;;;;18.65;16.40;;;;;;;;;;5015188;28;20567;-61
2024/01/07 03:20:24;;;;;;;17.52;15.70;;;;;;;;;;5015128;28;20022;-61
2024/01/07 03:22:50;;;;;;;19.40;17.38;;;;;;;;;;5015211;28;20055;-61
2024/01/07 03:25:16;;;;;;;19.85;17.63;;;;;;;;;;5014926;28;20025;-61
2024/01/07 03:27:42;;;;;;;19.35;17.15;;;;;;;;;;5015280;28;20034;-61
2024/01/07 03:30:09;;;;;;;19.80;17.08;;;;;;;;;;5013618;28;20211;-61
2024/01/07 03:32:35;;;;;;;18.92;16.90;;;;;;;;;;5013567;28;20480;-61
2024/01/07 03:35:02;;;;;;;17.92;16.20;;;;;;;;;;5014871;28;20109;-61
2024/01/07 03:37:28;;;;;;;19.00;16.90;;;;;;;;;;5014938;28;20022;-61
2024/01/07 03:39:53;;;;;;;20.35;17.63;;;;;;;;;;5014776;28;20364;-61
2024/01/07 03:42:20;;;;;;;20.30;18.23;;;;;;;;;;5014680;28;20033;-61
2024/01/07 03:44:46;;;;;;;20.58;18.05;;;;;;;;;;5014611;28;20096;-61
2024/01/07 03:47:12;;;;;;;21.50;17.42;;;;;;;;;;5014399;28;20118;-61
2024/01/07 03:49:38;;;;;;;20.25;17.58;;;;;;;;;;5014701;28;20051;-61
2024/01/07 03:52:05;;;;;;;21.48;18.75;;;;;;;;;;5014386;28;20029;-61
2024/01/07 03:54:31;;;;;;;25.08;18.45;;;;;;;;;;5013193;28;20025;-61
2024/01/07 03:56:57;;;;;;;23.35;18.15;;;;;;;;;;5014391;28;20395;-61
2024/01/07 03:59:25;;;;;;;20.95;17.98;;;;;;;;;;5013575;28;20025;-61
2024/01/07 04:01:51;;;;;;;22.40;18.60;;;;;;;;;;5017808;28;20032;-61
2024/01/07 04:04:17;;;;;;;22.13;18.20;;;;;;;;;;5021042;28;20384;-61
2024/01/07 04:06:43;;;;;;;23.63;18.30;;;;;;;;;;5025645;28;20084;-61
2024/01/07 04:09:09;;;;;;;21.50;18.33;;;;;;;;;;5026189;28;20037;-61
2024/01/07 04:11:40;;;;;;;20.63;18.27;;;;;;;;;;5013804;28;20026;-62
2024/01/07 04:14:06;;;;;;;21.42;19.05;;;;;;;;;;5017060;28;20491;-61
2024/01/07 04:16:32;;;;;;;21.25;17.10;;;;;;;;;;5017493;28;20173;-61
2024/01/07 04:18:58;;;;;;;23.27;19.55;;;;;;;;;;5018191;28;20414;-61
2024/01/07 04:21:24;;;;;;;20.88;18.50;;;;;;;;;;5016709;28;20060;-61
2024/01/07 04:23:50;;;;;;;20.52;18.42;;;;;;;;;;5009736;28;20137;-61
2024/01/07 04:26:16;;;;;;;21.60;18.77;;;;;;;;;;5013296;28;20026;-61
2024/01/07 04:28:42;;;;;;;21.35;17.80;;;;;;;;;;5016037;28;20026;-61
2024/01/07 04:31:09;;;;;;;21.60;18.55;;;;;;;;;;5026144;28;20030;-61
2024/01/07 04:33:35;;;;;;;22.10;18.75;;;;;;;;;;5022475;28;20041;-61
2024/01/07 04:36:01;;;;;;;22.10;19.17;;;;;;;;;;5030551;28;20116;-61
2024/01/07 04:38:27;;;;;;;21.05;18.63;;;;;;;;;;5032260;28;20025;-61
2024/01/07 04:40:53;;;;;;;20.00;17.88;;;;;;;;;;5018063;28;20054;-60
2024/01/07 04:43:19;;;;;;;22.98;18.98;;;;;;;;;;5020771;28;20071;-60
2024/01/07 04:45:45;;;;;;;20.02;17.80;;;;;;;;;;5018035;28;20410;-61
2024/01/07 04:48:11;;;;;;;20.63;18.42;;;;;;;;;;5010854;28;20040;-61
2024/01/07 04:50:37;;;;;;;20.70;18.13;;;;;;;;;;5015839;28;20114;-61
2024/01/07 04:53:03;;;;;;;22.13;19.02;;;;;;;;;;5025120;28;20357;-60
2024/01/07 04:55:30;;;;;;;24.08;20.67;;;;;;;;;;5020552;28;20032;-61
2024/01/07 04:57:56;;;;;;;22.17;19.65;;;;;;;;;;5019946;28;20097;-61
2024/01/07 05:00:22;;;;;;;23.50;20.02;;;;;;;;;;5011881;28;20116;-60
2024/01/07 05:02:48;;;;;;;24.02;20.08;;;;;;;;;;5013258;28;20028;-60
2024/01/07 05:05:14;;;;;;;21.35;19.05;;;;;;;;;;5026860;28;20500;-60
2024/01/07 05:07:40;;;;;;;21.30;18.38;;;;;;;;;;5011700;28;20068;-61
2024/01/07 05:10:07;;;;;;;19.88;17.77;;;;;;;;;;5013543;28;20030;-60
2024/01/07 05:12:33;;;;;;;22.95;20.30;;;;;;;;;;5013104;28;20041;-61
2024/01/07 05:14:59;;;;;;;23.15;20.02;;;;;;;;;;5013116;28;20460;-61
2024/01/07 05:17:25;;;;;;;25.50;20.55;;;;;;;;;;5012830;28;20117;-61
2024/01/07 05:19:51;;;;;;;22.98;20.48;;;;;;;;;;5011528;28;20084;-60
2024/01/07 05:22:17;;;;;;;23.95;19.85;;;;;;;;;;5026385;28;20483;-61
2024/01/07 05:24:43;;;;;;;22.88;20.00;;;;;;;;;;5012896;28;20037;-61
2024/01/07 05:27:09;;;;;;;24.08;20.77;;;;;;;;;;5012795;28;20042;-61
2024/01/07 05:29:35;;;;;;;22.98;20.02;;;;;;;;;;5012827;28;20048;-61
2024/01/07 05:32:02;;;;;;;22.88;18.92;;;;;;;;;;5012813;28;20391;-60
2024/01/07 05:34:28;;;;;;;24.45;20.05;;;;;;;;;;5012610;28;20025;-61
2024/01/07 05:36:54;;;;;;;22.92;19.63;;;;;;;;;;5012675;28;20034;-60
2024/01/07 05:39:20;;;;;;;22.35;19.50;;;;;;;;;;5012476;28;20069;-61
2024/01/07 05:41:46;;;;;;;23.75;19.95;;;;;;;;;;5012703;28;20337;-61
2024/01/07 05:44:13;;;;;;;25.90;20.35;;;;;;;;;;5012739;28;20050;-61
2024/01/07 05:46:39;;;;;;;24.73;21.73;;;;;;;;;;5012412;28;20044;-61
2024/01/07 05:49:06;;;;;;;22.00;19.70;;;;;;;;;;5011505;28;20476;-61
2024/01/07 05:51:32;;;;;;;22.60;19.38;;;;;;;;;;5011043;28;20029;-61
2024/01/07 05:53:58;;;;;;;22.25;19.27;;;;;;;;;;5012429;28;20105;-61
2024/01/07 05:56:24;;;;;;;24.48;19.35;;;;;;;;;;5026097;28;20036;-61
2024/01/07 05:58:50;;;;;;;22.35;19.38;;;;;;;;;;5012317;28;20113;-61
2024/01/07 06:01:22;;;;;;;21.30;18.95;;;;;;;;;;5010833;28;20068;-61
2024/01/07 06:03:48;;;;;;;22.92;18.45;;;;;;;;;;5010781;28;20116;-60
2024/01/07 06:06:15;;;;;;;23.05;18.80;;;;;;;;;;5012157;28;20329;-61
2024/01/07 06:08:44;;;;;;;21.02;18.40;;;;;;;;;;5012118;28;20034;-61
2024/01/07 06:11:18;;;;;;;19.80;16.92;;;;;;;;;;5012157;28;20491;-61
2024/01/07 06:13:44;;;;;;;18.67;16.67;;;;;;;;;;5009547;28;20030;-60
2024/01/07 06:16:10;;;;;;;18.73;16.75;;;;;;;;;;5003747;28;20483;-61
2024/01/07 06:18:36;;;;;;;18.63;16.25;;;;;;;;;;5011916;28;20037;-61
2024/01/07 06:21:02;;;;;;;19.65;17.55;;;;;;;;;;5011946;28;20026;-61
2024/01/07 06:23:28;;;;;;;21.05;17.13;;;;;;;;;;5011827;28;20032;-61
2024/01/07 06:28:58;;;;;;;18.52;16.50;;;;;;;;;;4999066;28;20064;-60
2024/01/07 06:31:27;;;;;;;17.88;16.05;;;;;;;;;;5012218;28;20036;-60
2024/01/07 06:33:55;;;;;;;19.23;16.48;;;;;;;;;;5011656;28;20026;-61
2024/01/07 06:36:22;;;;;;;19.67;16.35;;;;;;;;;;5018270;28;20109;-61
2024/01/07 06:38:48;;;;;;;21.67;17.30;;;;;;;;;;5018771;28;20033;-61
2024/01/07 06:41:14;;;;;;;19.42;17.33;;;;;;;;;;5018195;28;20037;-61
2024/01/07 06:43:41;;;;;;;17.85;15.95;;;;;;;;;;5017136;28;20426;-61
2024/01/07 06:46:07;;;;;;;17.92;16.02;;;;;;;;;;5003186;28;20108;-61
2024/01/07 06:48:33;;;;;;;18.20;16.33;;;;;;;;;;5018621;28;20113;-61
2024/01/07 06:50:59;;;;;;;17.35;15.57;;;;;;;;;;5018518;28;20013;-61
2024/01/07 06:53:25;;;;;;;18.40;16.40;;;;;;;;;;5018196;28;20486;-61
2024/01/07 06:55:51;;;;;;;17.52;15.73;;;;;;;;;;5030300;28;20053;-61
2024/01/07 06:58:17;;;;;;;16.98;15.18;;;;;;;;;;5019878;28;20045;-61
2024/01/07 07:00:43;;;;;;;17.60;14.75;;;;;;;;;;5018061;28;20467;-61
2024/01/07 07:03:09;;;;;;;16.90;15.10;;;;;;;;;;5018171;28;20062;-61
2024/01/07 07:05:35;;;;;;;16.50;14.80;;;;;;;;;;5018142;28;20021;-61
2024/01/07 07:08:02;;;;;;;14.13;12.65;;;;;;;;;;5018220;28;20042;-61
2024/01/07 07:10:28;;;;;;;14.10;12.70;;;;;;;;;;5018331;28;20022;-61
2024/01/07 07:12:54;;;;;;;15.95;13.98;;;;;;;;;;5016750;28;20030;-60
2024/01/07 07:15:20;;;;;;;14.68;13.25;;;;;;;;;;5016485;28;20029;-61
2024/01/07 07:17:46;;;;;;;15.15;13.57;;;;;;;;;;5017911;28;20017;-61
2024/01/07 07:20:12;;;;;;;14.95;13.35;;;;;;;;;;5017888;28;20034;-61
2024/01/07 07:22:39;;;;;;;14.98;13.43;;;;;;;;;;5018027;28;20077;-61
2024/01/07 07:25:05;;;;;;;15.52;13.80;;;;;;;;;;5017875;28;20050;-61
2024/01/07 07:27:31;;;;;;;14.02;12.63;;;;;;;;;;5017878;28;20109;-61
2024/01/07 07:42:17;;;;;;;13.65;12.25;;;;;;;;;;4988299;28;20109;-61
2024/01/07 07:44:43;;;;;;;14.00;12.50;;;;;;;;;;5008095;28;20049;-61
2024/01/07 07:47:11;;;;;;;14.55;13.05;;;;;;;;;;5015399;28;20153;-61
2024/01/07 07:49:39;;;;;;;13.57;12.00;;;;;;;;;;5012142;28;20018;-61
2024/01/07 07:52:06;;;;;;;13.23;11.80;;;;;;;;;;5014784;28;20353;-61
2024/01/07 07:54:31;;;;;;;13.07;11.68;;;;;;;;;;5014615;28;20021;-61
2024/01/07 07:56:58;;;;;;;13.48;12.10;;;;;;;;;;5013229;28;20137;-61
2024/01/07 07:59:24;;;;;;;12.98;11.55;;;;;;;;;;5014897;28;20030;-61
2024/01/07 08:01:50;;;;;;;13.95;12.48;;;;;;;;;;5014677;28;20472;-61
2024/01/07 08:04:16;;;;;;;13.95;12.55;;;;;;;;;;5013297;28;20026;-61
2024/01/07 08:06:42;;;;;;;14.35;12.82;;;;;;;;;;5014167;28;20088;-62
2024/01/07 08:09:08;;;;;;;15.15;13.63;;;;;;;;;;5014572;28;20076;-62
2024/01/07 08:11:34;;;;;;;14.05;12.65;;;;;;;;;;5014499;28;20061;-61
2024/01/07 08:14:01;;;;;;;13.95;12.50;;;;;;;;;;5014579;28;20022;-61
2024/01/07 08:16:27;;;;;;;13.27;11.93;;;;;;;;;;5014146;28;20037;-61
2024/01/07 08:18:56;;;;;;;12.77;11.30;;;;;;;;;;5014131;28;20030;-62
2024/01/07 08:21:25;;;;;;;13.60;12.20;;;;;;;;;;5014232;28;20026;-61
2024/01/07 08:23:52;;;;;;;11.82;10.63;;;;;;;;;;5014030;28;20033;-61
2024/01/07 08:26:22;;;;;;;12.65;11.45;;;;;;;;;;5012728;28;20026;-61
2024/01/07 08:28:49;;;;;;;12.88;11.57;;;;;;;;;;5014215;28;20017;-62
2024/01/07 08:31:15;;;;;;;11.80;10.52;;;;;;;;;;5014140;28;20029;-61
2024/01/07 08:33:41;;;;;;;12.20;11.00;;;;;;;;;;5013796;28;20113;-61
2024/01/07 08:36:07;;;;;;;11.38;10.35;;;;;;;;;;5013632;28;20026;-61
2024/01/07 08:38:34;;;;;;;11.40;10.27;;;;;;;;;;5013566;28;20107;-61
2024/01/07 08:41:00;;;;;;;11.00;9.90;;;;;;;;;;5012604;28;20022;-61
2024/01/07 08:43:26;;;;;;;9.55;8.65;;;;;;;;;;5013501;28;20153;-62
2024/01/07 08:45:52;;;;;;;10.35;9.35;;;;;;;;;;5013395;28;20161;-61
2024/01/07 08:48:18;;;;;;;10.30;9.30;;;;;;;;;;5009191;28;20021;-62
2024/01/07 08:50:44;;;;;;;10.15;9.15;;;;;;;;;;5011182;28;20034;-61
2024/01/07 08:56:13;;;;;;;9.35;8.40;;;;;;;;;;5010613;28;20033;-61
2024/01/07 08:58:41;;;;;;;9.20;8.30;;;;;;;;;;5023814;28;20037;-62
2024/01/07 09:01:06;;;;;;;7.93;7.22;;;;;;;;;;5023645;28;20131;-61
2024/01/07 09:03:33;;;;;;;7.35;6.65;;;;;;;;;;5025234;28;20018;-61
2024/01/07 09:05:59;;;;;;;8.73;7.82;;;;;;;;;;5018114;28;20369;-61
2024/01/07 09:08:25;;;;;;;8.45;7.57;;;;;;;;;;5020129;28;20041;-61
2024/01/07 09:10:51;;;;;;;8.30;7.32;;;;;;;;;;5013204;28;20105;-61
2024/01/07 09:13:17;;;;;;;7.85;7.05;;;;;;;;;;5011854;28;20117;-61
2024/01/07 09:15:43;;;;;;;7.35;6.65;;;;;;;;;;5026792;28;20529;-61
2024/01/07 09:18:09;;;;;;;8.05;7.32;;;;;;;;;;5013482;28;20033;-60
2024/01/07 09:20:35;;;;;;;10.13;7.43;;;;;;;;;;5013207;28;20040;-62
2024/01/07 09:23:01;;;;;;;8.73;7.80;;;;;;;;;;5013186;28;20108;-62
2024/01/07 09:25:27;;;;;;;9.45;8.45;;;;;;;;;;5013304;28;20063;-61
2024/01/07 09:27:53;;;;;;;9.00;8.18;;;;;;;;;;5013015;28;20038;-61
2024/01/07 09:30:19;;;;;;;9.40;8.38;;;;;;;;;;5013080;28;20061;-62
2024/01/07 09:32:45;;;;;;;9.25;8.20;;;;;;;;;;5027019;28;20044;-61
2024/01/07 09:35:11;;;;;;;9.70;7.38;;;;;;;;;;5012949;28;20026;-62
2024/01/07 09:37:37;;;;;;;8.07;7.28;;;;;;;;;;5012782;28;20476;-61
2024/01/07 09:40:06;;;;;;;10.52;7.60;;;;;;;;;;5013127;28;20022;-62
2024/01/07 09:42:32;;;;;;;7.93;7.13;;;;;;;;;;5012674;28;20046;-62
2024/01/07 09:45:03;;;;;;;8.70;7.88;;;;;;;;;;5012571;28;20523;-62
2024/01/07 09:47:29;;;;;;;7.22;6.50;;;;;;;;;;5012425;28;20507;-62
2024/01/07 09:49:56;;;;;;;8.95;6.80;;;;;;;;;;5012555;28;20030;-62
2024/01/07 09:52:22;;;;;;;8.02;7.28;;;;;;;;;;5012554;28;20034;-62
2024/01/07 09:54:52;;;;;;;7.35;6.40;;;;;;;;;;5012505;28;20085;-62
2024/01/07 09:57:18;;;;;;;6.30;5.70;;;;;;;;;;5024511;28;20049;-62
2024/01/07 09:59:44;;;;;;;6.55;5.85;;;;;;;;;;5017111;28;20469;-62
2024/01/07 10:02:10;;;;;;;6.13;5.53;;;;;;;;;;5017915;28;20172;-62
2024/01/07 10:04:36;;;;;;;6.13;5.53;;;;;;;;;;5012538;28;20030;-62
2024/01/07 10:07:02;;;;;;;6.18;5.57;;;;;;;;;;5026636;28;20042;-62
2024/01/07 10:09:34;;;;;;;8.30;7.13;;;;;;;;;;5017644;28;20172;-62
2024/01/07 10:12:00;;;;;;;7.28;6.35;;;;;;;;;;5027381;28;20053;-62
2024/01/07 10:14:26;;;;;;;7.00;6.30;;;;;;;;;;5030473;28;20018;-62
2024/01/07 10:16:53;;;;;;;8.32;7.15;;;;;;;;;;5029032;28;20034;-62
2024/01/07 10:19:23;;;;;;;8.52;6.50;;;;;;;;;;5029204;28;20024;-62
2024/01/07 10:22:02;;;;;;;6.40;5.75;;;;;;;;;;5017435;28;20037;-62
2024/01/07 10:24:36;;;;;;;7.20;6.03;;;;;;;;;;5028374;28;20025;-62
2024/01/07 10:27:03;;;;;;;6.68;5.75;;;;;;;;;;5019845;28;20441;-62
2024/01/07 10:29:29;;;;;;;5.15;4.65;;;;;;;;;;5009966;28;20036;-61
2024/01/07 10:31:58;;;;;;;5.10;4.57;;;;;;;;;;5011740;28;20097;-62
2024/01/07 10:34:24;;;;;;;5.30;4.45;;;;;;;;;;5010089;28;20030;-61
2024/01/07 10:36:56;;;;;;;6.47;4.88;;;;;;;;;;5020713;28;20140;-61
2024/01/07 10:39:22;;;;;;;5.63;5.05;;;;;;;;;;5016493;28;20033;-62
2024/01/07 10:41:48;;;;;;;6.22;4.88;;;;;;;;;;5011898;28;20040;-61
2024/01/07 10:44:14;;;;;;;5.95;5.43;;;;;;;;;;5012003;28;20472;-61
2024/01/07 10:46:40;;;;;;;6.07;5.57;;;;;;;;;;5025760;28;20070;-62
2024/01/07 10:49:15;;;;;;;7.65;6.88;;;;;;;;;;5012171;28;20088;-62
2024/01/07 10:51:42;;;;;;;9.25;7.43;;;;;;;;;;5010474;28;20396;-62
2024/01/07 10:54:09;;;;;;;7.97;7.18;;;;;;;;;;5010363;28;20364;-62
2024/01/07 10:56:43;;;;;;;9.32;8.43;;;;;;;;;;5011585;28;20476;-62
2024/01/07 10:59:10;;;;;;;8.63;7.78;;;;;;;;;;5004748;28;20030;-62
2024/01/07 11:01:37;;;;;;;9.75;8.80;;;;;;;;;;5012130;28;20026;-62
2024/01/07 11:04:14;;;;;;;10.57;9.50;;;;;;;;;;5023585;28;20321;-62
2024/01/07 11:06:47;;;;;;;10.27;9.27;;;;;;;;;;5011731;28;20052;-62
2024/01/07 11:09:20;;;;;;;10.73;9.50;;;;;;;;;;5011668;28;20091;-62
2024/01/07 11:11:47;;;;;;;9.02;8.13;;;;;;;;;;5011904;28;20025;-62
2024/01/07 11:17:37;;;;;;;8.25;7.55;;;;;;;;;;4998424;28;20455;-62
2024/01/07 11:20:06;;;;;;;8.10;6.70;;;;;;;;;;5011417;28;20026;-62
2024/01/07 11:22:32;;;;;;;6.63;5.68;;;;;;;;;;5001692;28;20514;-62
2024/01/07 11:25:01;;;;;;;6.50;5.90;;;;;;;;;;5015361;28;20053;-62
2024/01/07 11:27:31;;;;;;;6.60;5.90;;;;;;;;;;5015000;28;20333;-62
2024/01/07 11:29:57;;;;;;;7.13;6.40;;;;;;;;;;5015230;28;20464;-62
2024/01/07 11:32:25;;;;;;;9.65;6.55;;;;;;;;;;5014904;28;20033;-62
2024/01/07 11:34:53;;;;;;;7.72;6.20;;;;;;;;;;5014569;28;20092;-62
2024/01/07 11:37:19;;;;;;;8.05;6.50;;;;;;;;;;5009796;28;20084;-65
2024/01/07 11:39:46;;;;;;;6.32;5.72;;;;;;;;;;5011444;28;20062;-62
2024/01/07 11:42:13;;;;;;;6.30;5.70;;;;;;;;;;5006423;28;20038;-62
2024/01/07 11:44:47;;;;;;;8.00;7.20;;;;;;;;;;5011746;28;20441;-62
2024/01/07 11:47:13;;;;;;;10.82;9.15;;;;;;;;;;5007965;28;20096;-62
2024/01/07 11:49:39;;;;;;;7.38;6.55;;;;;;;;;;5006089;28;20033;-62
2024/01/07 11:52:05;;;;;;;8.68;7.78;;;;;;;;;;5008892;28;20088;-62
2024/01/07 11:54:32;;;;;;;15.00;11.02;;;;;;;;;;5013677;28;20030;-62
2024/01/07 11:56:58;;;;;;;20.48;14.80;;;;;;;;;;5007299;28;20018;-62
2024/01/07 11:59:24;;;;;;;41.47;27.35;;;;;;;;;;5009278;28;20038;-62
2024/01/07 12:01:50;;;;;;;30.75;20.67;;;;;;;;;;5008038;28;20036;-62
2024/01/07 12:04:16;;;;;;;17.35;13.60;;;;;;;;;;5014358;28;20403;-62
2024/01/07 12:06:42;;;;;;;15.90;10.85;;;;;;;;;;5012793;28;20038;-62
2024/01/07 12:09:08;;;;;;;11.77;8.55;;;;;;;;;;5014274;28;20037;-62
2024/01/07 12:11:34;;;;;;;8.15;7.25;;;;;;;;;;5006513;28;20499;-62
2024/01/07 12:14:01;;;;;;;9.02;6.78;;;;;;;;;;5005877;28;20186;-62
2024/01/07 12:16:47;;;;;;;7.78;7.03;;;;;;;;;;5013840;28;20044;-62
2024/01/07 12:19:23;;;;;;;8.48;7.65;;;;;;;;;;5010489;28;20117;-62
2024/01/07 12:21:51;;;;;;;8.30;6.82;;;;;;;;;;5012877;28;20033;-62
2024/01/07 12:24:18;;;;;;;9.25;7.53;;;;;;;;;;5013929;28;20521;-62
2024/01/07 12:26:44;;;;;;;12.18;8.80;;;;;;;;;;5008221;28;20388;-62
2024/01/07 12:29:12;;;;;;;10.70;7.97;;;;;;;;;;5005240;28;20029;-62
2024/01/07 12:31:39;;;;;;;10.65;8.88;;;;;;;;;;5006287;28;20125;-61
2024/01/07 12:34:05;;;;;;;10.05;7.35;;;;;;;;;;5011164;28;20030;-61
2024/01/07 12:36:34;;;;;;;11.23;7.88;;;;;;;;;;5005228;28;20084;-62
2024/01/07 12:39:00;;;;;;;8.63;7.30;;;;;;;;;;5008669;28;20037;-61
2024/01/07 12:41:26;;;;;;;7.95;6.88;;;;;;;;;;5013281;28;20025;-62
2024/01/07 12:43:52;;;;;;;9.25;7.28;;;;;;;;;;5008387;28;20042;-62
2024/01/07 12:46:18;;;;;;;9.18;8.27;;;;;;;;;;5007983;28;20033;-62
2024/01/07 12:48:44;;;;;;;6.75;6.05;;;;;;;;;;5005170;28;20192;-61
2024/01/07 12:51:10;;;;;;;7.90;7.07;;;;;;;;;;5013512;28;20117;-62
2024/01/07 12:53:36;;;;;;;12.50;10.20;;;;;;;;;;5007903;28;20383;-61
2024/01/07 12:56:03;;;;;;;12.52;8.70;;;;;;;;;;5013459;28;20511;-61
2024/01/07 12:58:29;;;;;;;11.35;8.95;;;;;;;;;;5011757;28;20487;-62
2024/01/07 13:00:55;;;;;;;10.70;8.50;;;;;;;;;;5006983;28;20025;-61
2024/01/07 13:03:21;;;;;;;11.65;10.20;;;;;;;;;;5012670;28;20030;-62
2024/01/07 13:05:51;;;;;;;11.75;9.70;;;;;;;;;;5008411;28;20036;-62
2024/01/07 13:08:25;;;;;;;9.23;8.13;;;;;;;;;;5011069;28;20415;-62
2024/01/07 13:10:51;;;;;;;9.30;7.63;;;;;;;;;;5013517;28;20029;-62
2024/01/07 13:13:17;;;;;;;9.05;8.13;;;;;;;;;;5012942;28;20276;-62
2024/01/07 13:15:44;;;;;;;12.65;9.80;;;;;;;;;;5013154;28;20034;-62
2024/01/07 13:18:27;;;;;;;10.43;9.18;;;;;;;;;;5012449;28;20022;-61
2024/01/07 13:20:53;;;;;;;9.63;8.65;;;;;;;;;;5005393;28;20053;-61
2024/01/07 13:23:19;;;;;;;9.70;8.23;;;;;;;;;;5003390;28;20031;-62
2024/01/07 13:25:45;;;;;;;10.75;9.15;;;;;;;;;;5015588;28;20045;-61
2024/01/07 13:28:11;;;;;;;9.13;8.27;;;;;;;;;;5012015;28;20041;-61
2024/01/07 13:30:40;;;;;;;9.15;8.23;;;;;;;;;;5009438;28;20030;-61
2024/01/07 13:33:05;;;;;;;8.45;7.55;;;;;;;;;;5012481;28;20376;-61
2024/01/07 13:35:31;;;;;;;10.55;8.93;;;;;;;;;;5012448;28;20104;-62
2024/01/07 13:37:58;;;;;;;9.80;8.57;;;;;;;;;;5012851;28;20100;-65
2024/01/07 13:40:24;;;;;;;10.80;8.85;;;;;;;;;;5012796;28;20026;-65
2024/01/07 13:42:52;;;;;;;10.25;9.05;;;;;;;;;;5012240;28;20142;-62
2024/01/07 13:45:23;;;;;;;10.02;8.73;;;;;;;;;;5012089;28;20018;-63
2024/01/07 13:47:49;;;;;;;8.63;7.75;;;;;;;;;;5012251;28;20068;-62
2024/01/07 13:50:15;;;;;;;7.82;6.97;;;;;;;;;;5012323;28;20091;-62
2024/01/07 13:52:41;;;;;;;7.72;6.18;;;;;;;;;;5012229;28;20431;-62
2024/01/07 13:55:10;;;;;;;6.68;6.07;;;;;;;;;;5011939;28;20369;-63
2024/01/07 13:57:36;;;;;;;7.68;6.88;;;;;;;;;;5011189;28;20429;-62
2024/01/07 14:00:08;;;;;;;7.32;6.60;;;;;;;;;;5012551;28;20403;-62
2024/01/07 14:02:34;;;;;;;8.07;6.90;;;;;;;;;;5011979;28;20164;-63
2024/01/07 14:05:00;;;;;;;6.82;5.82;;;;;;;;;;5012054;28;20108;-62
2024/01/07 14:07:27;;;;;;;6.30;5.30;;;;;;;;;;5012285;28;20467;-62
2024/01/07 14:09:53;;;;;;;7.15;5.40;;;;;;;;;;5010889;28;20092;-63
2024/01/07 14:12:19;;;;;;;4.35;3.95;;;;;;;;;;5012369;28;20413;-62
2024/01/07 14:14:45;;;;;;;5.35;4.00;;;;;;;;;;5010521;28;20117;-63
2024/01/07 14:17:12;;;;;;;5.90;3.70;;;;;;;;;;5010086;28;20037;-63
2024/01/07 14:19:38;;;;;;;5.80;4.72;;;;;;;;;;5010705;28;20092;-62
2024/01/07 14:22:04;;;;;;;6.78;4.38;;;;;;;;;;5011966;28;20480;-64
2024/01/07 14:24:30;;;;;;;4.30;3.35;;;;;;;;;;5012102;28;20099;-63
2024/01/07 14:26:56;;;;;;;3.50;2.78;;;;;;;;;;5011823;28;20033;-62
2024/01/07 14:29:22;;;;;;;3.53;3.00;;;;;;;;;;5012286;28;20529;-62
2024/01/07 14:31:49;;;;;;;6.45;3.75;;;;;;;;;;5011705;28;20029;-62
2024/01/07 14:34:15;;;;;;;5.13;3.75;;;;;;;;;;5010286;28;20042;-63
2024/01/07 14:36:44;;;;;;;3.85;3.47;;;;;;;;;;5003898;28;20523;-63
2024/01/07 14:39:10;;;;;;;3.38;3.00;;;;;;;;;;5010370;28;20486;-63
2024/01/07 14:41:36;;;;;;;3.75;3.25;;;;;;;;;;5011450;28;20123;-62
2024/01/07 14:44:03;;;;;;;3.88;3.58;;;;;;;;;;5011775;28;20066;-62